Etusivu
METAR-TAF:

METAR-TAF

Lentoasemat :

Dease Lake, Brittiläinen Kolumbia, Kanada

Leveyspiiri: 58-25-20N, Pituuspiiri: 130-01-53W, korkeus merenpinnasta: 803 m

Tämänhetkinen sää

Tämä raportti tehtiin 1 tunti ja 11 minuuttia sitten, kello 10.00 UTC
Tuuli 3 kn idästä/koillisesta
Lämpötila -22°C
Kosteus 84%
Ilmanpaine 1024 hPa
Näkyvyys: 14.5 km
selkeää

METAR: CYDL 201000Z AUTO 06003KT 9SM CLR M22/M24 A3023 RMK SLP298

Aika: 03:11 (11:11 UTC)

Sääennuste

Tämä raportti tehtiin 11 tuntia ja 33 minuuttia sitten, kello 23.38 UTC
Ennuste voimassa 20. päivästä klo 00 UTC - 20. päivään klo 03 UTC
Tuuli 3 kn eri suunnista
Näkyvyys: 10 km
Muutamia pilviä 6000 ft:n korkeudessa

TAF: CYDL 192338Z 2000/2003 VRB03KT P6SM FEW060 RMK FCST BASED ON AUTO OBS. NXT FCST WILL BE ISSUED AT 201645Z

Säähavainnot ja -ennusteet yli 4000 lentoasemalta (METAR- ja TAF-raportit).

Käytössä olevat sääasemat on merkitty karttaan keltaisilla ja punaisilla pisteillä.

Aseta hiiri pisteen päälle nähdäksesi sääaseman nimen.

Klikkaa sitten nähdäksesi säähavainnot ja -ennusteet.

Kartan vaihtaminen: klikkaa mustalla rastilla varustettuja vihreitä pisteitä, niin voit zoomata sisään; viivalla varustettua vihreää pistettä, niin voit zoomata ulos tai vihreitä nuolia, niin pääset viereisille kartoille.


METAR-TAF: